createdAt,value
2023-05-24T00:00:00.955Z,100722.47
2023-05-24T00:02:28.094Z,100726.25
2023-05-24T00:04:55.456Z,100719.28
2023-05-24T00:07:22.427Z,100710.19
2023-05-24T00:09:49.371Z,100706.94
2023-05-24T00:12:16.741Z,100711.00
2023-05-24T00:14:43.703Z,100714.47
2023-05-24T00:17:10.639Z,100720.19
2023-05-24T00:19:38.413Z,100717.59
2023-05-24T00:22:05.656Z,100717.88
2023-05-24T00:24:32.635Z,100714.47
2023-05-24T00:26:59.596Z,100720.38
2023-05-24T00:29:26.537Z,100712.72
2023-05-24T00:31:53.524Z,100714.00
2023-05-24T00:34:20.729Z,100707.97
2023-05-24T00:36:47.677Z,100698.88
2023-05-24T00:39:14.894Z,100711.34
2023-05-24T00:41:41.864Z,100708.34
2023-05-24T00:44:10.960Z,100706.00
2023-05-24T00:46:38.490Z,100698.31
2023-05-24T00:49:05.630Z,100697.50
2023-05-24T00:51:33.954Z,100698.75
2023-05-24T00:54:01.259Z,100698.63
2023-05-24T00:56:28.609Z,100704.13
2023-05-24T00:58:56.367Z,100694.03
2023-05-24T01:01:30.893Z,100688.06
2023-05-24T01:03:59.552Z,100686.66
2023-05-24T01:06:28.322Z,100679.41
2023-05-24T01:09:47.465Z,100678.75
2023-05-24T01:13:06.109Z,100676.81
2023-05-24T01:15:58.648Z,100683.13
2023-05-24T01:18:57.132Z,100685.88
2023-05-24T01:21:56.337Z,100681.22
2023-05-24T01:24:44.596Z,100687.94
2023-05-24T01:27:16.709Z,100686.16
2023-05-24T01:29:43.769Z,100679.56
2023-05-24T01:32:10.883Z,100686.97
2023-05-24T01:34:37.814Z,100687.53
2023-05-24T01:37:04.896Z,100689.44
2023-05-24T01:39:31.812Z,100697.00
2023-05-24T01:42:25.290Z,100695.75
2023-05-24T01:44:57.997Z,100702.88
2023-05-24T01:47:27.615Z,100702.72
2023-05-24T01:49:57.830Z,100708.09
2023-05-24T01:52:29.376Z,100711.09
2023-05-24T01:54:57.534Z,100712.06
2023-05-24T01:57:26.953Z,100724.25
2023-05-24T01:59:55.377Z,100716.59
2023-05-24T02:02:22.405Z,100727.00
2023-05-24T02:04:49.691Z,100722.31
2023-05-24T02:07:17.552Z,100728.66
2023-05-24T02:09:44.549Z,100725.78
2023-05-24T02:12:11.996Z,100729.47
2023-05-24T02:14:39.169Z,100720.97
2023-05-24T02:17:06.695Z,100718.91
2023-05-24T02:19:36.835Z,100719.72
2023-05-24T02:22:04.049Z,100726.56
2023-05-24T02:24:31.053Z,100725.66
2023-05-24T02:26:57.980Z,100716.19
2023-05-24T02:29:25.444Z,100729.06
2023-05-24T02:31:56.382Z,100732.34
2023-05-24T02:34:24.302Z,100725.34
2023-05-24T02:36:54.278Z,100720.44
2023-05-24T02:39:21.506Z,100719.47
2023-05-24T02:41:48.501Z,100716.59
2023-05-24T02:44:15.417Z,100720.28
2023-05-24T02:46:42.533Z,100715.63
2023-05-24T02:49:10.470Z,100724.94
2023-05-24T02:51:37.488Z,100720.94
2023-05-24T02:54:04.528Z,100714.69
2023-05-24T02:56:31.498Z,100716.31
2023-05-24T02:58:58.725Z,100711.09
2023-05-24T03:01:26.059Z,100710.56
2023-05-24T03:03:53.092Z,100713.97
2023-05-24T03:06:21.570Z,100715.91
2023-05-24T03:08:49.710Z,100711.91
2023-05-24T03:11:17.163Z,100709.19
2023-05-24T03:13:44.419Z,100709.72
2023-05-24T03:16:11.378Z,100701.09
2023-05-24T03:18:38.396Z,100689.72
2023-05-24T03:21:05.751Z,100681.75
2023-05-24T03:23:32.724Z,100677.53
2023-05-24T03:25:59.695Z,100684.81
2023-05-24T03:28:27.553Z,100695.06
2023-05-24T03:30:54.651Z,100695.59
2023-05-24T03:33:21.631Z,100689.84
2023-05-24T03:35:48.615Z,100700.66
2023-05-24T03:38:15.772Z,100696.44
2023-05-24T03:40:43.837Z,100706.13
2023-05-24T03:43:10.931Z,100707.50
2023-05-24T03:45:40.080Z,100706.00
2023-05-24T03:48:07.486Z,100711.31
2023-05-24T03:50:34.918Z,100706.66
2023-05-24T03:53:03.860Z,100715.84
2023-05-24T03:55:31.051Z,100722.69
2023-05-24T03:57:58.084Z,100725.00
2023-05-24T04:00:25.075Z,100737.53
2023-05-24T04:02:52.098Z,100736.22
2023-05-24T04:05:19.085Z,100735.63
2023-05-24T04:07:46.458Z,100750.28
2023-05-24T04:10:13.602Z,100734.25
2023-05-24T04:12:41.503Z,100735.94
2023-05-24T04:15:09.989Z,100735.22
2023-05-24T04:17:37.296Z,100732.34
2023-05-24T04:20:05.960Z,100736.56
2023-05-24T04:22:33.005Z,100744.38
2023-05-24T04:25:00.217Z,100731.75
2023-05-24T04:27:27.472Z,100736.97
2023-05-24T04:29:54.621Z,100737.91
2023-05-24T04:32:21.701Z,100732.88
2023-05-24T04:34:48.603Z,100731.91
2023-05-24T04:37:17.370Z,100736.97
2023-05-24T04:39:45.524Z,100735.16
2023-05-24T04:42:13.705Z,100737.81
2023-05-24T04:44:41.530Z,100736.84
2023-05-24T04:47:09.841Z,100741.31
2023-05-24T04:49:36.773Z,100737.50
2023-05-24T04:52:03.932Z,100732.28
2023-05-24T04:54:30.973Z,100744.31
2023-05-24T04:56:57.927Z,100742.59
2023-05-24T04:59:25.268Z,100744.88
2023-05-24T05:01:52.477Z,100740.53
2023-05-24T05:04:19.518Z,100735.84
2023-05-24T05:06:48.292Z,100733.38
2023-05-24T05:09:15.794Z,100739.03
2023-05-24T05:11:43.294Z,100740.53
2023-05-24T05:14:10.570Z,100747.94
2023-05-24T05:16:38.677Z,100739.84
2023-05-24T05:19:06.004Z,100755.34
2023-05-24T05:21:34.148Z,100753.13
2023-05-24T05:24:02.213Z,100750.50
2023-05-24T05:26:30.461Z,100761.97
2023-05-24T05:28:58.424Z,100752.28
2023-05-24T05:31:25.675Z,100753.22
2023-05-24T05:33:52.725Z,100744.38
2023-05-24T05:36:19.851Z,100739.84
2023-05-24T05:38:46.859Z,100745.59
2023-05-24T05:41:13.792Z,100744.97
2023-05-24T05:43:41.000Z,100736.44
2023-05-24T05:46:08.012Z,100724.81
2023-05-24T05:48:34.954Z,100728.66
2023-05-24T05:51:02.009Z,100715.91
2023-05-24T05:53:29.049Z,100711.38
2023-05-24T05:55:56.798Z,100733.59
2023-05-24T05:58:23.819Z,100726.16
2023-05-24T06:00:51.423Z,100741.22
2023-05-24T06:03:18.574Z,100728.03
2023-05-24T06:05:45.641Z,100736.13
2023-05-24T06:08:12.631Z,100737.47
2023-05-24T06:10:39.550Z,100737.63
2023-05-24T06:13:06.494Z,100735.19
2023-05-24T06:15:34.510Z,100737.56
2023-05-24T06:18:05.199Z,100727.00
2023-05-24T06:20:32.462Z,100738.94
2023-05-24T06:23:00.118Z,100737.16
2023-05-24T06:25:30.837Z,100740.28
2023-05-24T06:27:57.820Z,100726.44
2023-05-24T06:30:25.871Z,100737.94
2023-05-24T06:32:52.980Z,100747.84
2023-05-24T06:35:20.098Z,100732.34
2023-05-24T06:37:47.107Z,100739.22
2023-05-24T06:40:14.168Z,100753.59
2023-05-24T06:42:41.324Z,100750.72
2023-05-24T06:45:09.313Z,100757.00
2023-05-24T06:47:36.953Z,100760.84
2023-05-24T06:50:05.231Z,100767.03
2023-05-24T06:52:32.202Z,100773.88
2023-05-24T06:54:59.313Z,100770.41
2023-05-24T06:57:27.017Z,100779.03
2023-05-24T06:59:54.007Z,100780.72
2023-05-24T07:02:26.533Z,100767.94
2023-05-24T07:04:53.995Z,100773.72
2023-05-24T07:07:21.267Z,100764.81
2023-05-24T07:09:48.179Z,100765.38
2023-05-24T07:12:15.275Z,100771.53
2023-05-24T07:14:42.744Z,100768.47
2023-05-24T07:17:09.976Z,100748.84
2023-05-24T07:19:37.166Z,100758.38
2023-05-24T07:22:04.241Z,100757.97
2023-05-24T07:24:31.336Z,100761.94
2023-05-24T07:26:58.425Z,100746.63
2023-05-24T07:29:26.132Z,100758.94
2023-05-24T07:31:56.514Z,100745.09
2023-05-24T07:34:27.412Z,100737.97
2023-05-24T07:36:54.423Z,100732.28
2023-05-24T07:39:21.421Z,100745.31
2023-05-24T07:41:48.396Z,100736.88
2023-05-24T07:44:15.752Z,100736.50
2023-05-24T07:46:42.814Z,100738.44
2023-05-24T07:49:09.760Z,100738.50
2023-05-24T07:51:36.977Z,100750.00
2023-05-24T07:54:04.069Z,100736.59
2023-05-24T07:56:32.177Z,100725.91
2023-05-24T07:59:05.724Z,100736.59
2023-05-24T08:01:35.022Z,100736.16
2023-05-24T08:04:04.349Z,100730.84
2023-05-24T08:06:35.164Z,100722.75
2023-05-24T08:09:04.402Z,100731.50
2023-05-24T08:11:31.659Z,100720.59
2023-05-24T08:13:58.653Z,100719.94
2023-05-24T08:16:26.125Z,100721.66
2023-05-24T08:18:55.096Z,100715.28
2023-05-24T08:21:22.626Z,100718.47
2023-05-24T08:23:49.943Z,100702.25
2023-05-24T08:26:19.168Z,100699.50
2023-05-24T08:28:46.427Z,100707.78
2023-05-24T08:31:13.390Z,100705.28
2023-05-24T08:33:41.444Z,100717.22
2023-05-24T08:36:08.630Z,100717.88
2023-05-24T08:38:35.755Z,100713.69
2023-05-24T08:41:09.415Z,100701.53
2023-05-24T08:43:38.865Z,100700.44
2023-05-24T08:46:07.201Z,100708.03
2023-05-24T08:48:46.278Z,100702.00
2023-05-24T08:51:16.163Z,100704.66
2023-05-24T08:53:48.624Z,100693.56
2023-05-24T08:56:19.467Z,100693.25
2023-05-24T08:58:47.217Z,100675.91
2023-05-24T09:01:17.292Z,100690.00
2023-05-24T09:03:47.362Z,100687.66
2023-05-24T09:06:18.074Z,100678.69
2023-05-24T09:08:46.284Z,100692.59
2023-05-24T09:11:16.672Z,100685.72
2023-05-24T09:13:45.735Z,100672.22
2023-05-24T09:16:13.073Z,100675.97
2023-05-24T09:18:42.765Z,100679.66
2023-05-24T09:21:11.722Z,100682.81
2023-05-24T09:23:39.413Z,100696.94
2023-05-24T09:26:11.157Z,100687.53
2023-05-24T09:28:38.953Z,100682.63
2023-05-24T09:31:08.098Z,100669.66
2023-05-24T09:33:36.181Z,100663.47
2023-05-24T09:36:07.055Z,100670.91
2023-05-24T09:38:36.131Z,100688.34
2023-05-24T09:41:08.660Z,100678.25
2023-05-24T09:43:49.500Z,100658.19
2023-05-24T09:46:20.321Z,100661.34
2023-05-24T09:48:58.643Z,100673.28
2023-05-24T09:51:26.148Z,100661.16
2023-05-24T09:53:58.778Z,100649.84
2023-05-24T09:56:26.340Z,100654.28
2023-05-24T09:58:54.929Z,100649.06
2023-05-24T10:01:28.283Z,100643.69
2023-05-24T10:04:03.277Z,100626.31
2023-05-24T10:06:35.208Z,100621.88
2023-05-24T10:09:05.334Z,100640.31
2023-05-24T10:11:35.990Z,100630.22
2023-05-24T10:14:07.756Z,100615.06
2023-05-24T10:16:36.381Z,100621.03
2023-05-24T10:19:04.003Z,100608.63
2023-05-24T10:21:33.042Z,100607.50
2023-05-24T10:24:02.421Z,100619.53
2023-05-24T10:26:33.707Z,100617.06
2023-05-24T10:29:11.567Z,100611.78
2023-05-24T10:31:41.766Z,100616.19
2023-05-24T10:34:09.955Z,100622.94
2023-05-24T10:36:40.376Z,100609.03
2023-05-24T10:39:11.364Z,100607.84
2023-05-24T10:41:42.600Z,100602.41
2023-05-24T10:44:14.708Z,100606.03
2023-05-24T10:47:12.395Z,100593.25
2023-05-24T10:49:52.696Z,100610.94
2023-05-24T10:52:20.586Z,100600.72
2023-05-24T10:55:08.676Z,100609.88
2023-05-24T10:57:38.283Z,100611.03
2023-05-24T11:00:35.118Z,100613.25
2023-05-24T11:03:08.847Z,100609.88
2023-05-24T11:05:56.868Z,100603.81
2023-05-24T11:08:37.787Z,100591.38
2023-05-24T11:11:26.709Z,100613.97
2023-05-24T11:14:01.381Z,100629.78
2023-05-24T11:16:38.838Z,100627.16
2023-05-24T11:19:23.976Z,100636.19
2023-05-24T11:21:54.534Z,100638.44
2023-05-24T11:24:25.671Z,100633.47
2023-05-24T11:26:53.067Z,100616.09
2023-05-24T11:29:24.496Z,100621.59
2023-05-24T11:32:05.109Z,100629.50
2023-05-24T11:34:34.333Z,100626.88
2023-05-24T11:37:06.094Z,100619.78
2023-05-24T11:39:36.519Z,100628.91
2023-05-24T11:42:08.633Z,100605.13
2023-05-24T11:44:39.863Z,100616.25
2023-05-24T11:47:08.658Z,100613.09
2023-05-24T11:49:36.126Z,100590.81
2023-05-24T11:52:03.185Z,100591.38
2023-05-24T11:54:33.347Z,100593.25
2023-05-24T11:57:01.817Z,100603.03
2023-05-24T11:59:30.180Z,100584.75
2023-05-24T12:02:02.638Z,100573.91
2023-05-24T12:04:31.306Z,100553.59
2023-05-24T12:06:58.791Z,100578.84
2023-05-24T12:09:26.447Z,100560.66
2023-05-24T12:11:54.600Z,100563.41
2023-05-24T12:14:30.651Z,100558.28
2023-05-24T12:16:57.668Z,100565.25
2023-05-24T12:21:58.241Z,100567.19
2023-05-24T12:24:27.214Z,100555.53
2023-05-24T12:27:06.529Z,100563.81
2023-05-24T12:29:40.747Z,100551.03
2023-05-24T12:32:14.223Z,100552.59
2023-05-24T12:34:42.994Z,100544.09
2023-05-24T12:37:14.976Z,100555.00
2023-05-24T12:39:43.329Z,100551.97
2023-05-24T12:42:14.732Z,100547.06
2023-05-24T12:44:42.401Z,100556.19
2023-05-24T12:47:10.204Z,100548.53
2023-05-24T12:49:37.254Z,100567.03
2023-05-24T12:52:04.486Z,100562.66
2023-05-24T12:54:31.723Z,100551.09
2023-05-24T12:57:02.595Z,100555.34
2023-05-24T12:59:30.019Z,100558.44
2023-05-24T13:01:57.661Z,100538.47
2023-05-24T13:04:30.405Z,100536.84
2023-05-24T13:06:57.418Z,100543.19
2023-05-24T13:09:25.921Z,100545.41
2023-05-24T13:11:54.277Z,100537.03
2023-05-24T13:14:22.674Z,100534.91
2023-05-24T13:16:50.021Z,100525.22
2023-05-24T13:19:17.378Z,100533.84
2023-05-24T13:21:44.935Z,100535.03
2023-05-24T13:24:16.015Z,100524.78
2023-05-24T13:26:43.329Z,100525.88
2023-05-24T13:31:41.072Z,100516.59
2023-05-24T13:34:11.552Z,100520.25
2023-05-24T13:36:39.082Z,100532.75
2023-05-24T13:41:40.368Z,100523.59
2023-05-24T13:44:07.516Z,100504.44
2023-05-24T13:46:34.618Z,100494.13
2023-05-24T13:49:02.314Z,100500.72
2023-05-24T13:51:30.642Z,100515.63
2023-05-24T13:53:57.764Z,100494.47
2023-05-24T13:56:25.880Z,100509.41
2023-05-24T13:58:53.483Z,100513.25
2023-05-24T14:01:20.840Z,100521.88
2023-05-24T14:03:47.966Z,100516.66
2023-05-24T14:06:15.027Z,100516.84
2023-05-24T14:08:42.520Z,100516.25
2023-05-24T14:11:10.908Z,100537.00
2023-05-24T14:16:08.991Z,100537.84
2023-05-24T14:18:36.505Z,100529.47
2023-05-24T14:21:04.036Z,100518.94
2023-05-24T14:23:31.943Z,100524.56
2023-05-24T14:26:00.137Z,100525.19
2023-05-24T14:28:27.085Z,100522.34
2023-05-24T14:30:54.149Z,100508.53
2023-05-24T14:33:21.150Z,100522.69
2023-05-24T14:35:48.391Z,100518.69
2023-05-24T14:38:15.408Z,100521.94
2023-05-24T14:40:42.488Z,100523.28
2023-05-24T14:43:10.828Z,100524.25
2023-05-24T14:45:42.190Z,100519.69
2023-05-24T14:48:11.547Z,100516.88
2023-05-24T14:50:41.013Z,100523.78
2023-05-24T14:53:11.838Z,100520.44
2023-05-24T14:55:41.783Z,100511.09
2023-05-24T14:58:11.395Z,100519.06
2023-05-24T15:00:41.102Z,100507.97
2023-05-24T15:03:09.150Z,100527.38
2023-05-24T15:05:37.066Z,100502.53
2023-05-24T15:08:05.502Z,100505.81
2023-05-24T15:10:33.960Z,100515.06
2023-05-24T15:13:01.447Z,100518.25
2023-05-24T15:15:28.946Z,100507.72
2023-05-24T15:17:57.240Z,100511.44
2023-05-24T15:22:52.518Z,100501.47
2023-05-24T15:25:19.631Z,100510.91
2023-05-24T15:27:47.373Z,100494.78
2023-05-24T15:30:14.721Z,100500.66
2023-05-24T15:32:41.909Z,100496.97
2023-05-24T15:35:09.717Z,100483.53
2023-05-24T15:37:36.686Z,100502.28
2023-05-24T15:40:04.106Z,100510.81
2023-05-24T15:42:32.188Z,100512.88
2023-05-24T15:44:59.345Z,100503.09
2023-05-24T15:47:29.168Z,100508.56
2023-05-24T15:49:57.085Z,100504.38
2023-05-24T15:52:24.208Z,100522.50
2023-05-24T15:54:51.210Z,100514.44
2023-05-24T15:57:18.193Z,100504.09
2023-05-24T15:59:45.182Z,100511.53
2023-05-24T16:02:12.193Z,100517.56
2023-05-24T16:04:39.695Z,100519.56
2023-05-24T16:07:07.204Z,100519.41
2023-05-24T16:09:34.217Z,100519.03
2023-05-24T16:12:01.354Z,100521.44
2023-05-24T16:14:28.533Z,100524.38
2023-05-24T16:16:58.537Z,100535.69
2023-05-24T16:19:26.370Z,100523.88
2023-05-24T16:21:53.321Z,100524.69
2023-05-24T16:24:20.798Z,100519.53
2023-05-24T16:26:47.778Z,100514.03
2023-05-24T16:29:16.801Z,100525.06
2023-05-24T16:31:43.912Z,100535.50
2023-05-24T16:34:10.993Z,100530.63
2023-05-24T16:36:38.209Z,100536.78
2023-05-24T16:39:05.433Z,100522.34
2023-05-24T16:41:37.434Z,100521.28
2023-05-24T16:44:04.738Z,100519.53
2023-05-24T16:46:32.372Z,100517.00
2023-05-24T16:49:00.112Z,100514.91
2023-05-24T16:51:27.370Z,100526.63
2023-05-24T16:53:54.317Z,100531.88
2023-05-24T16:56:21.623Z,100519.81
2023-05-24T16:58:48.648Z,100537.28
2023-05-24T17:01:15.771Z,100541.97
2023-05-24T17:03:42.963Z,100549.50
2023-05-24T17:06:09.934Z,100564.31
2023-05-24T17:08:37.171Z,100553.47
2023-05-24T17:11:05.529Z,100565.75
2023-05-24T17:13:33.330Z,100566.78
2023-05-24T17:16:00.710Z,100569.06
2023-05-24T17:18:28.416Z,100564.03
2023-05-24T17:21:00.648Z,100574.00
2023-05-24T17:23:31.076Z,100574.03
2023-05-24T17:25:58.633Z,100564.53
2023-05-24T17:28:29.873Z,100577.00
2023-05-24T17:30:58.690Z,100584.19
2023-05-24T17:33:28.022Z,100575.38
2023-05-24T17:35:56.630Z,100578.47
2023-05-24T17:38:28.520Z,100584.53
2023-05-24T17:41:01.811Z,100578.63
2023-05-24T17:43:31.693Z,100584.69
2023-05-24T17:46:03.855Z,100580.59
2023-05-24T17:48:39.300Z,100578.31
2023-05-24T17:51:08.835Z,100574.03
2023-05-24T17:53:37.971Z,100578.81
2023-05-24T17:56:06.183Z,100582.56
2023-05-24T17:58:36.331Z,100588.31
2023-05-24T18:01:11.413Z,100598.63
2023-05-24T18:03:40.762Z,100590.09
2023-05-24T18:06:08.838Z,100609.41
2023-05-24T18:08:38.127Z,100606.47
2023-05-24T18:11:08.504Z,100605.63
2023-05-24T18:13:41.762Z,100613.97
2023-05-24T18:16:12.763Z,100612.31
2023-05-24T18:18:40.768Z,100621.81
2023-05-24T18:21:09.560Z,100616.91
2023-05-24T18:23:40.168Z,100623.78
2023-05-24T18:26:08.916Z,100626.34
2023-05-24T18:28:37.577Z,100623.63
2023-05-24T18:31:10.506Z,100630.78
2023-05-24T18:33:38.125Z,100629.94
2023-05-24T18:36:05.837Z,100622.88
2023-05-24T18:38:37.328Z,100629.06
2023-05-24T18:41:06.297Z,100634.13
2023-05-24T18:43:33.664Z,100632.78
2023-05-24T18:46:01.109Z,100644.88
2023-05-24T18:48:28.099Z,100642.75
2023-05-24T18:50:55.097Z,100643.09
2023-05-24T18:53:23.217Z,100646.47
2023-05-24T18:55:50.957Z,100652.56
2023-05-24T18:58:17.982Z,100653.97
2023-05-24T19:00:44.984Z,100657.16
2023-05-24T19:03:13.341Z,100664.03
2023-05-24T19:05:43.525Z,100662.91
2023-05-24T19:08:11.112Z,100658.00
2023-05-24T19:10:38.078Z,100658.31
2023-05-24T19:13:06.447Z,100659.78
2023-05-24T19:15:36.594Z,100654.53
2023-05-24T19:18:03.933Z,100657.66
2023-05-24T19:20:31.111Z,100656.19
2023-05-24T19:22:58.167Z,100659.19
2023-05-24T19:25:25.461Z,100663.31
2023-05-24T19:27:59.453Z,100674.91
2023-05-24T19:30:27.593Z,100670.09
2023-05-24T19:32:54.766Z,100676.84
2023-05-24T19:35:21.847Z,100683.84
2023-05-24T19:37:48.795Z,100682.72
2023-05-24T19:40:16.196Z,100688.09
2023-05-24T19:42:43.344Z,100698.41
2023-05-24T19:45:12.000Z,100690.19
2023-05-24T19:47:39.733Z,100688.16
2023-05-24T19:50:07.860Z,100690.84
2023-05-24T19:52:34.826Z,100689.66
2023-05-24T19:55:02.955Z,100692.41
2023-05-24T19:57:30.194Z,100703.88
2023-05-24T19:59:57.165Z,100704.19
2023-05-24T20:02:24.310Z,100719.44
2023-05-24T20:04:51.252Z,100726.47
2023-05-24T20:07:18.256Z,100718.94
2023-05-24T20:09:45.415Z,100718.41
2023-05-24T20:12:12.475Z,100723.16
2023-05-24T20:14:39.424Z,100727.88
2023-05-24T20:17:06.468Z,100734.00
2023-05-24T20:19:33.538Z,100727.41
2023-05-24T20:22:00.502Z,100742.38
2023-05-24T20:24:27.456Z,100750.56
2023-05-24T20:26:54.477Z,100745.00
2023-05-24T20:29:21.555Z,100739.31
2023-05-24T20:31:48.509Z,100742.00
2023-05-24T20:34:15.505Z,100746.84
2023-05-24T20:36:43.946Z,100750.00
2023-05-24T20:39:11.342Z,100754.69
2023-05-24T20:41:38.350Z,100760.16
2023-05-24T20:44:05.381Z,100754.69
2023-05-24T20:46:32.585Z,100765.09
2023-05-24T20:48:59.715Z,100766.06
2023-05-24T20:51:26.631Z,100769.22
2023-05-24T20:53:53.765Z,100763.88
2023-05-24T20:56:23.232Z,100767.41
2023-05-24T20:58:52.918Z,100767.84
2023-05-24T21:01:21.250Z,100758.94
2023-05-24T21:03:48.572Z,100747.28
2023-05-24T21:06:15.597Z,100757.03
2023-05-24T21:08:43.431Z,100757.69
2023-05-24T21:11:10.568Z,100749.72
2023-05-24T21:13:37.700Z,100749.75
2023-05-24T21:16:05.192Z,100747.97
2023-05-24T21:18:33.382Z,100749.75
2023-05-24T21:21:00.618Z,100745.09
2023-05-24T21:23:27.621Z,100754.13
2023-05-24T21:25:54.591Z,100747.53
2023-05-24T21:28:21.493Z,100749.88
2023-05-24T21:30:48.478Z,100752.06
2023-05-24T21:33:16.434Z,100757.16
2023-05-24T21:35:43.627Z,100762.91
2023-05-24T21:38:10.965Z,100757.16
2023-05-24T21:40:37.929Z,100766.47
2023-05-24T21:43:05.265Z,100764.56
2023-05-24T21:45:32.270Z,100766.47
2023-05-24T21:47:59.363Z,100767.28
2023-05-24T21:50:26.335Z,100763.16
2023-05-24T21:52:53.270Z,100760.44
2023-05-24T21:55:20.801Z,100772.78
2023-05-24T21:57:48.139Z,100775.75
2023-05-24T22:00:16.796Z,100783.44
2023-05-24T22:02:43.846Z,100777.41
2023-05-24T22:05:10.904Z,100776.56
2023-05-24T22:07:37.988Z,100776.31
2023-05-24T22:10:06.321Z,100779.59
2023-05-24T22:12:34.545Z,100784.31
2023-05-24T22:15:02.083Z,100787.75
2023-05-24T22:17:29.383Z,100785.00
2023-05-24T22:19:56.449Z,100792.16
2023-05-24T22:22:23.392Z,100787.09
2023-05-24T22:24:50.854Z,100797.31
2023-05-24T22:27:17.984Z,100800.50
2023-05-24T22:29:45.015Z,100799.69
2023-05-24T22:32:12.211Z,100816.28
2023-05-24T22:34:39.714Z,100811.59
2023-05-24T22:37:07.386Z,100822.25
2023-05-24T22:39:34.322Z,100817.06
2023-05-24T22:42:01.688Z,100815.75
2023-05-24T22:44:28.670Z,100815.75
2023-05-24T22:46:56.473Z,100812.91
2023-05-24T22:49:23.483Z,100807.97
2023-05-24T22:51:51.161Z,100811.38
2023-05-24T22:54:18.323Z,100808.16
2023-05-24T22:56:46.472Z,100818.84
2023-05-24T22:59:13.609Z,100811.38
2023-05-24T23:01:40.738Z,100815.63
2023-05-24T23:04:20.543Z,100814.19
2023-05-24T23:06:52.864Z,100815.22
2023-05-24T23:09:34.503Z,100816.81
2023-05-24T23:12:07.639Z,100814.28
2023-05-24T23:14:41.626Z,100817.09
2023-05-24T23:17:13.436Z,100813.84
2023-05-24T23:19:44.835Z,100816.81
2023-05-24T23:22:13.447Z,100818.69
2023-05-24T23:24:44.832Z,100814.88
2023-05-24T23:27:11.884Z,100810.38
2023-05-24T23:29:39.178Z,100819.34
2023-05-24T23:32:08.088Z,100815.31
2023-05-24T23:34:35.152Z,100810.41
2023-05-24T23:37:04.029Z,100806.06
2023-05-24T23:39:31.281Z,100803.44
2023-05-24T23:41:58.228Z,100806.97
2023-05-24T23:44:25.885Z,100799.91
2023-05-24T23:46:53.818Z,100804.16
2023-05-24T23:49:20.870Z,100795.31
2023-05-24T23:51:48.033Z,100807.09
2023-05-24T23:54:15.704Z,100808.59
2023-05-24T23:56:45.734Z,100797.91
2023-05-24T23:59:12.737Z,100808.25
